createdAt,value
2023-05-19T00:01:15.325Z,100852.09
2023-05-19T00:03:43.016Z,100853.19
2023-05-19T00:06:10.765Z,100847.31
2023-05-19T00:08:38.885Z,100844.88
2023-05-19T00:11:06.802Z,100843.53
2023-05-19T00:13:34.722Z,100849.25
2023-05-19T00:16:02.435Z,100845.25
2023-05-19T00:18:30.764Z,100842.81
2023-05-19T00:20:58.798Z,100843.91
2023-05-19T00:23:26.458Z,100842.63
2023-05-19T00:25:54.206Z,100838.41
2023-05-19T00:28:21.836Z,100834.25
2023-05-19T00:30:49.462Z,100845.00
2023-05-19T00:33:17.441Z,100838.94
2023-05-19T00:35:45.336Z,100843.47
2023-05-19T00:38:12.979Z,100845.19
2023-05-19T00:40:40.641Z,100841.66
2023-05-19T00:43:08.598Z,100837.28
2023-05-19T00:45:36.655Z,100837.41
2023-05-19T00:48:04.316Z,100837.47
2023-05-19T00:50:32.096Z,100842.84
2023-05-19T00:52:59.849Z,100835.91
2023-05-19T00:55:27.913Z,100838.66
2023-05-19T00:57:55.951Z,100841.31
2023-05-19T01:00:23.602Z,100834.38
2023-05-19T01:02:51.874Z,100836.34
2023-05-19T01:05:19.522Z,100833.84
2023-05-19T01:07:47.446Z,100835.84
2023-05-19T01:10:15.428Z,100837.94
2023-05-19T01:12:43.066Z,100832.81
2023-05-19T01:15:10.709Z,100838.34
2023-05-19T01:17:38.755Z,100834.13
2023-05-19T01:20:06.777Z,100834.31
2023-05-19T01:22:34.827Z,100837.09
2023-05-19T01:25:02.642Z,100833.75
2023-05-19T01:27:30.214Z,100843.66
2023-05-19T01:29:57.827Z,100841.25
2023-05-19T01:32:25.475Z,100830.06
2023-05-19T01:34:53.487Z,100831.13
2023-05-19T01:37:21.166Z,100832.25
2023-05-19T01:39:49.127Z,100821.78
2023-05-19T01:42:16.854Z,100831.63
2023-05-19T01:44:44.593Z,100828.03
2023-05-19T01:47:12.200Z,100823.69
2023-05-19T01:49:39.796Z,100826.31
2023-05-19T01:52:07.463Z,100825.44
2023-05-19T01:54:35.067Z,100823.81
2023-05-19T01:57:02.663Z,100824.84
2023-05-19T01:59:30.758Z,100828.50
2023-05-19T02:01:59.852Z,100820.69
2023-05-19T02:04:27.541Z,100822.50
2023-05-19T02:06:55.322Z,100825.41
2023-05-19T02:09:22.943Z,100839.56
2023-05-19T02:11:50.922Z,100828.28
2023-05-19T02:14:18.540Z,100831.94
2023-05-19T02:16:46.171Z,100833.88
2023-05-19T02:19:13.811Z,100841.19
2023-05-19T02:21:41.504Z,100838.78
2023-05-19T02:24:09.865Z,100838.94
2023-05-19T02:26:37.696Z,100842.53
2023-05-19T02:29:05.351Z,100841.66
2023-05-19T02:31:32.950Z,100839.06
2023-05-19T02:34:00.753Z,100839.06
2023-05-19T02:36:28.790Z,100840.00
2023-05-19T02:38:57.055Z,100842.66
2023-05-19T02:41:24.683Z,100841.88
2023-05-19T02:43:52.340Z,100842.81
2023-05-19T02:46:20.468Z,100836.66
2023-05-19T02:48:48.506Z,100837.53
2023-05-19T02:51:16.176Z,100837.53
2023-05-19T02:53:43.780Z,100835.66
2023-05-19T02:56:11.410Z,100838.34
2023-05-19T02:58:39.618Z,100839.41
2023-05-19T03:01:07.634Z,100841.41
2023-05-19T03:03:35.298Z,100842.56
2023-05-19T03:06:03.191Z,100838.41
2023-05-19T03:08:30.798Z,100841.28
2023-05-19T03:10:58.430Z,100835.38
2023-05-19T03:13:26.468Z,100831.09
2023-05-19T03:15:57.035Z,100843.53
2023-05-19T03:18:24.886Z,100823.44
2023-05-19T03:20:54.065Z,100825.31
2023-05-19T03:23:21.729Z,100829.00
2023-05-19T03:25:49.353Z,100830.94
2023-05-19T03:28:17.391Z,100829.31
2023-05-19T03:30:45.592Z,100832.97
2023-05-19T03:33:13.289Z,100836.63
2023-05-19T03:35:41.075Z,100827.88
2023-05-19T03:38:09.074Z,100828.03
2023-05-19T03:40:36.853Z,100823.75
2023-05-19T03:43:04.541Z,100830.03
2023-05-19T03:45:32.193Z,100832.66
2023-05-19T03:47:59.882Z,100834.47
2023-05-19T03:50:29.674Z,100836.19
2023-05-19T03:52:58.471Z,100844.97
2023-05-19T03:55:26.098Z,100842.19
2023-05-19T03:57:53.851Z,100841.09
2023-05-19T04:00:21.508Z,100839.16
2023-05-19T04:02:49.731Z,100842.47
2023-05-19T04:05:17.662Z,100836.16
2023-05-19T04:07:46.779Z,100842.13
2023-05-19T04:10:14.473Z,100846.31
2023-05-19T04:12:42.129Z,100851.31
2023-05-19T04:15:11.981Z,100848.38
2023-05-19T04:17:39.674Z,100848.16
2023-05-19T04:20:07.376Z,100837.34
2023-05-19T04:22:35.020Z,100842.34
2023-05-19T04:25:04.009Z,100837.66
2023-05-19T04:27:32.516Z,100840.06
2023-05-19T04:30:00.215Z,100845.06
2023-05-19T04:32:29.390Z,100841.34
2023-05-19T04:34:58.975Z,100841.13
2023-05-19T04:37:26.808Z,100833.81
2023-05-19T04:39:54.782Z,100839.72
2023-05-19T04:42:22.768Z,100830.47
2023-05-19T04:44:51.914Z,100829.09
2023-05-19T04:47:21.704Z,100829.44
2023-05-19T04:49:49.442Z,100831.53
2023-05-19T04:52:22.180Z,100830.72
2023-05-19T04:54:50.085Z,100838.63
2023-05-19T04:57:17.712Z,100836.16
2023-05-19T04:59:46.356Z,100834.38
2023-05-19T05:02:14.080Z,100831.78
2023-05-19T05:04:44.531Z,100832.72
2023-05-19T05:07:12.180Z,100828.28
2023-05-19T05:09:39.805Z,100829.50
2023-05-19T05:12:08.184Z,100824.53
2023-05-19T05:14:35.786Z,100825.78
2023-05-19T05:17:04.049Z,100825.34
2023-05-19T05:19:31.832Z,100827.53
2023-05-19T05:22:00.050Z,100827.19
2023-05-19T05:24:27.693Z,100828.72
2023-05-19T05:26:55.356Z,100831.13
2023-05-19T05:29:23.130Z,100835.88
2023-05-19T05:31:50.764Z,100835.13
2023-05-19T05:34:18.481Z,100826.34
2023-05-19T05:36:46.147Z,100827.41
2023-05-19T05:39:14.004Z,100828.63
2023-05-19T05:41:42.060Z,100834.09
2023-05-19T05:44:11.067Z,100830.56
2023-05-19T05:46:38.702Z,100832.25
2023-05-19T05:49:06.416Z,100830.38
2023-05-19T05:51:34.239Z,100818.66
2023-05-19T05:54:02.115Z,100815.00
2023-05-19T05:56:30.029Z,100815.72
2023-05-19T05:58:58.052Z,100818.53
2023-05-19T06:01:26.118Z,100818.69
2023-05-19T06:03:53.810Z,100808.69
2023-05-19T06:06:21.914Z,100819.16
2023-05-19T06:08:49.820Z,100813.56
2023-05-19T06:11:17.557Z,100810.59
2023-05-19T06:13:45.325Z,100805.91
2023-05-19T06:16:13.155Z,100806.00
2023-05-19T06:18:41.304Z,100806.94
2023-05-19T06:21:10.384Z,100802.47
2023-05-19T06:23:38.123Z,100804.03
2023-05-19T06:26:06.045Z,100801.13
2023-05-19T06:28:34.210Z,100801.91
2023-05-19T06:31:02.135Z,100803.69
2023-05-19T06:33:29.944Z,100795.84
2023-05-19T06:35:57.654Z,100789.72
2023-05-19T06:38:25.425Z,100793.03
2023-05-19T06:40:53.243Z,100793.22
2023-05-19T06:43:21.607Z,100790.72
2023-05-19T06:45:49.310Z,100789.78
2023-05-19T06:48:17.120Z,100792.59
2023-05-19T06:50:45.333Z,100788.50
2023-05-19T06:53:13.210Z,100790.44
2023-05-19T06:55:50.785Z,100790.69
2023-05-19T06:58:26.887Z,100785.47
2023-05-19T07:00:54.778Z,100791.81
2023-05-19T07:03:22.628Z,100792.06
2023-05-19T07:05:51.108Z,100789.41
2023-05-19T07:08:18.994Z,100791.22
2023-05-19T07:10:48.636Z,100788.50
2023-05-19T07:13:16.499Z,100784.91
2023-05-19T07:15:44.237Z,100785.00
2023-05-19T07:18:12.452Z,100783.28
2023-05-19T07:20:40.213Z,100780.16
2023-05-19T07:23:08.041Z,100767.44
2023-05-19T07:25:35.738Z,100767.16
2023-05-19T07:28:03.533Z,100765.16
2023-05-19T07:30:31.872Z,100771.44
2023-05-19T07:33:00.019Z,100764.56
2023-05-19T07:35:28.117Z,100764.06
2023-05-19T07:37:55.909Z,100768.63
2023-05-19T07:40:23.752Z,100768.31
2023-05-19T07:42:51.815Z,100765.41
2023-05-19T07:45:19.741Z,100755.44
2023-05-19T07:47:47.817Z,100759.88
2023-05-19T07:50:15.516Z,100759.19
2023-05-19T07:52:43.380Z,100755.84
2023-05-19T07:55:12.289Z,100752.47
2023-05-19T07:57:40.057Z,100756.19
2023-05-19T08:00:11.916Z,100752.66
2023-05-19T08:02:39.843Z,100750.69
2023-05-19T08:05:07.750Z,100744.78
2023-05-19T08:07:35.852Z,100746.66
2023-05-19T08:10:03.992Z,100743.28
2023-05-19T08:12:31.757Z,100747.97
2023-05-19T08:15:01.402Z,100750.09
2023-05-19T08:17:29.958Z,100736.09
2023-05-19T08:19:58.081Z,100737.91
2023-05-19T08:22:26.128Z,100740.19
2023-05-19T08:24:54.120Z,100740.19
2023-05-19T08:27:21.958Z,100737.19
2023-05-19T08:29:49.893Z,100732.34
2023-05-19T08:32:17.995Z,100728.78
2023-05-19T08:34:45.803Z,100727.25
2023-05-19T08:37:13.867Z,100725.50
2023-05-19T08:39:42.081Z,100721.38
2023-05-19T08:42:10.217Z,100715.38
2023-05-19T08:44:38.357Z,100711.81
2023-05-19T08:47:08.310Z,100704.22
2023-05-19T08:49:36.258Z,100708.44
2023-05-19T08:52:04.158Z,100706.97
2023-05-19T08:54:33.938Z,100691.03
2023-05-19T08:57:02.783Z,100690.16
2023-05-19T08:59:31.210Z,100683.50
2023-05-19T09:02:00.550Z,100684.72
2023-05-19T09:04:30.112Z,100680.09
2023-05-19T09:06:59.163Z,100671.91
2023-05-19T09:09:27.390Z,100687.19
2023-05-19T09:11:55.164Z,100682.53
2023-05-19T09:14:23.396Z,100684.16
2023-05-19T09:16:53.024Z,100681.19
2023-05-19T09:19:21.642Z,100676.94
2023-05-19T09:21:50.269Z,100674.91
2023-05-19T09:24:18.649Z,100673.75
2023-05-19T09:26:46.421Z,100679.88
2023-05-19T09:29:14.309Z,100673.31
2023-05-19T09:31:42.420Z,100675.78
2023-05-19T09:34:10.668Z,100665.59
2023-05-19T09:36:38.560Z,100659.28
2023-05-19T09:39:06.825Z,100660.78
2023-05-19T09:41:34.794Z,100651.97
2023-05-19T09:44:02.712Z,100659.66
2023-05-19T09:46:31.074Z,100641.53
2023-05-19T09:48:59.039Z,100646.00
2023-05-19T09:51:27.232Z,100649.44
2023-05-19T09:53:55.322Z,100645.19
2023-05-19T09:56:23.982Z,100648.34
2023-05-19T09:58:52.181Z,100644.88
2023-05-19T10:01:20.187Z,100640.16
2023-05-19T10:03:48.246Z,100633.31
2023-05-19T10:06:16.559Z,100637.81
2023-05-19T10:08:45.429Z,100630.38
2023-05-19T10:11:13.529Z,100636.84
2023-05-19T10:13:41.438Z,100631.28
2023-05-19T10:16:09.886Z,100625.94
2023-05-19T10:18:39.766Z,100621.25
2023-05-19T10:21:08.211Z,100621.09
2023-05-19T10:23:36.150Z,100626.31
2023-05-19T10:26:05.262Z,100628.56
2023-05-19T10:28:33.261Z,100621.84
2023-05-19T10:31:01.731Z,100623.69
2023-05-19T10:33:29.633Z,100622.06
2023-05-19T10:35:58.369Z,100623.50
2023-05-19T10:38:26.595Z,100620.41
2023-05-19T10:40:54.867Z,100631.25
2023-05-19T10:43:25.610Z,100615.91
2023-05-19T10:45:53.563Z,100621.47
2023-05-19T10:48:22.023Z,100614.75
2023-05-19T10:50:49.890Z,100611.03
2023-05-19T10:53:18.700Z,100610.00
2023-05-19T10:55:46.659Z,100609.16
2023-05-19T10:58:14.569Z,100604.31
2023-05-19T11:00:43.167Z,100599.50
2023-05-19T11:03:11.753Z,100602.63
2023-05-19T11:05:39.941Z,100594.63
2023-05-19T11:08:08.377Z,100589.19
2023-05-19T11:10:37.318Z,100598.03
2023-05-19T11:13:06.580Z,100593.13
2023-05-19T11:15:35.194Z,100593.28
2023-05-19T11:18:03.032Z,100597.66
2023-05-19T11:20:30.954Z,100596.00
2023-05-19T11:22:58.774Z,100589.03
2023-05-19T11:25:26.552Z,100596.19
2023-05-19T11:27:54.463Z,100587.31
2023-05-19T11:30:22.554Z,100594.94
2023-05-19T11:32:50.267Z,100592.81
2023-05-19T11:35:19.238Z,100593.66
2023-05-19T11:37:48.106Z,100583.56
2023-05-19T11:40:15.920Z,100579.06
2023-05-19T11:42:45.251Z,100582.94
2023-05-19T11:45:13.094Z,100577.69
2023-05-19T11:47:51.986Z,100576.22
2023-05-19T11:50:31.530Z,100581.50
2023-05-19T11:52:59.431Z,100571.78
2023-05-19T11:55:27.488Z,100580.22
2023-05-19T11:58:03.893Z,100574.66
2023-05-19T12:00:34.102Z,100572.28
2023-05-19T12:03:02.548Z,100568.88
2023-05-19T12:05:30.478Z,100564.19
2023-05-19T12:07:58.442Z,100569.88
2023-05-19T12:10:26.279Z,100565.69
2023-05-19T12:12:54.430Z,100564.84
2023-05-19T12:15:22.548Z,100560.75
2023-05-19T12:17:50.641Z,100558.84
2023-05-19T12:20:18.538Z,100555.75
2023-05-19T12:22:46.463Z,100549.00
2023-05-19T12:25:14.859Z,100543.41
2023-05-19T12:27:43.085Z,100538.75
2023-05-19T12:30:10.983Z,100540.06
2023-05-19T12:32:38.882Z,100533.47
2023-05-19T12:35:06.703Z,100532.38
2023-05-19T12:37:35.455Z,100527.97
2023-05-19T12:40:05.145Z,100531.44
2023-05-19T12:42:33.680Z,100524.84
2023-05-19T12:45:03.099Z,100516.72
2023-05-19T12:47:31.376Z,100522.59
2023-05-19T12:49:59.573Z,100526.25
2023-05-19T12:52:27.831Z,100516.47
2023-05-19T12:54:56.004Z,100519.22
2023-05-19T12:57:24.433Z,100513.34
2023-05-19T12:59:52.814Z,100520.44
2023-05-19T13:02:21.750Z,100524.38
2023-05-19T13:04:50.907Z,100517.19
2023-05-19T13:07:19.663Z,100513.97
2023-05-19T13:09:49.026Z,100518.50
2023-05-19T13:12:16.874Z,100511.94
2023-05-19T13:14:44.706Z,100516.22
2023-05-19T13:17:13.013Z,100513.97
2023-05-19T13:19:40.907Z,100508.81
2023-05-19T13:22:08.730Z,100512.75
2023-05-19T13:24:36.938Z,100519.94
2023-05-19T13:27:06.273Z,100515.63
2023-05-19T13:29:34.667Z,100522.38
2023-05-19T13:32:02.594Z,100522.38
2023-05-19T13:34:30.536Z,100510.31
2023-05-19T13:36:58.416Z,100508.69
2023-05-19T13:39:26.925Z,100515.66
2023-05-19T13:41:54.842Z,100512.97
2023-05-19T13:44:24.794Z,100517.00
2023-05-19T13:46:53.161Z,100514.84
2023-05-19T13:49:20.940Z,100515.84
2023-05-19T13:51:49.365Z,100519.34
2023-05-19T13:54:17.552Z,100510.00
2023-05-19T13:56:48.824Z,100514.88
2023-05-19T13:59:17.639Z,100511.31
2023-05-19T14:01:45.805Z,100501.66
2023-05-19T14:04:14.840Z,100502.22
2023-05-19T14:06:43.227Z,100495.97
2023-05-19T14:09:12.301Z,100500.09
2023-05-19T14:11:40.215Z,100503.03
2023-05-19T14:14:09.327Z,100492.34
2023-05-19T14:16:38.972Z,100492.81
2023-05-19T14:19:07.476Z,100490.78
2023-05-19T14:21:36.671Z,100488.09
2023-05-19T14:24:04.662Z,100485.94
2023-05-19T14:26:32.532Z,100492.88
2023-05-19T14:29:00.501Z,100474.81
2023-05-19T14:31:30.041Z,100480.00
2023-05-19T14:33:58.060Z,100489.19
2023-05-19T14:36:26.043Z,100492.56
2023-05-19T14:38:53.924Z,100484.84
2023-05-19T14:41:22.689Z,100485.47
2023-05-19T14:43:50.616Z,100488.50
2023-05-19T14:46:18.697Z,100481.34
2023-05-19T14:48:46.526Z,100493.34
2023-05-19T14:51:14.485Z,100501.41
2023-05-19T14:53:43.088Z,100490.34
2023-05-19T14:56:10.809Z,100486.84
2023-05-19T14:58:38.601Z,100489.81
2023-05-19T15:01:06.601Z,100485.84
2023-05-19T15:03:34.533Z,100496.13
2023-05-19T15:06:02.767Z,100491.94
2023-05-19T15:08:30.761Z,100493.44
2023-05-19T15:10:58.543Z,100481.78
2023-05-19T15:13:26.688Z,100481.63
2023-05-19T15:16:08.353Z,100476.38
2023-05-19T15:18:43.678Z,100468.63
2023-05-19T15:21:11.578Z,100465.94
2023-05-19T15:23:39.385Z,100472.53
2023-05-19T15:26:07.257Z,100471.03
2023-05-19T15:28:35.237Z,100469.06
2023-05-19T15:31:03.865Z,100467.28
2023-05-19T15:33:31.712Z,100466.31
2023-05-19T15:35:59.651Z,100466.31
2023-05-19T15:38:29.751Z,100469.81
2023-05-19T15:40:57.826Z,100470.31
2023-05-19T15:43:26.213Z,100467.75
2023-05-19T15:45:55.377Z,100466.41
2023-05-19T15:48:23.245Z,100468.34
2023-05-19T15:50:51.289Z,100464.88
2023-05-19T15:53:20.486Z,100460.81
2023-05-19T15:55:48.746Z,100458.91
2023-05-19T15:58:17.608Z,100445.16
2023-05-19T16:00:45.588Z,100451.88
2023-05-19T16:03:13.560Z,100452.94
2023-05-19T16:05:41.764Z,100443.97
2023-05-19T16:08:10.384Z,100443.16
2023-05-19T16:10:38.270Z,100442.78
2023-05-19T16:13:06.134Z,100443.75
2023-05-19T16:15:34.119Z,100443.63
2023-05-19T16:18:01.960Z,100434.63
2023-05-19T16:20:31.701Z,100435.44
2023-05-19T16:22:59.927Z,100431.88
2023-05-19T16:25:27.792Z,100434.69
2023-05-19T16:27:55.660Z,100452.09
2023-05-19T16:30:23.442Z,100447.75
2023-05-19T16:32:53.727Z,100455.00
2023-05-19T16:35:21.700Z,100447.25
2023-05-19T16:37:49.493Z,100454.44
2023-05-19T16:40:17.367Z,100447.78
2023-05-19T16:42:45.679Z,100447.28
2023-05-19T16:45:13.478Z,100447.13
2023-05-19T16:47:41.341Z,100445.72
2023-05-19T16:50:10.249Z,100449.78
2023-05-19T16:52:38.089Z,100447.44
2023-05-19T16:55:05.993Z,100452.13
2023-05-19T16:57:34.214Z,100446.84
2023-05-19T17:00:02.060Z,100447.47
2023-05-19T17:02:30.029Z,100450.22
2023-05-19T17:04:58.023Z,100444.66
2023-05-19T17:07:28.148Z,100438.97
2023-05-19T17:09:56.623Z,100450.00
2023-05-19T17:12:24.559Z,100449.50
2023-05-19T17:14:53.171Z,100440.75
2023-05-19T17:17:21.127Z,100445.47
2023-05-19T17:19:49.172Z,100446.34
2023-05-19T17:22:17.964Z,100450.03
2023-05-19T17:24:45.984Z,100447.31
2023-05-19T17:27:15.347Z,100453.41
2023-05-19T17:29:43.295Z,100454.75
2023-05-19T17:32:11.104Z,100448.31
2023-05-19T17:34:39.797Z,100452.53
2023-05-19T17:37:07.612Z,100452.38
2023-05-19T17:39:35.186Z,100448.47
2023-05-19T17:42:02.856Z,100449.16
2023-05-19T17:44:30.549Z,100455.22
2023-05-19T17:46:59.657Z,100458.22
2023-05-19T17:49:27.458Z,100453.34
2023-05-19T17:51:55.125Z,100467.34
2023-05-19T17:54:22.814Z,100459.88
2023-05-19T17:56:50.555Z,100458.69
2023-05-19T17:59:18.748Z,100463.72
2023-05-19T18:01:46.602Z,100471.63
2023-05-19T18:04:16.049Z,100471.44
2023-05-19T18:06:44.062Z,100463.97
2023-05-19T18:09:13.247Z,100477.28
2023-05-19T18:11:41.481Z,100470.84
2023-05-19T18:14:09.155Z,100472.50
2023-05-19T18:16:36.942Z,100478.53
2023-05-19T18:19:04.765Z,100475.78
2023-05-19T18:21:32.596Z,100480.13
2023-05-19T18:24:03.807Z,100481.94
2023-05-19T18:26:31.567Z,100488.97
2023-05-19T18:29:02.771Z,100489.63
2023-05-19T18:31:30.905Z,100482.25
2023-05-19T18:33:58.649Z,100491.97
2023-05-19T18:36:26.606Z,100493.63
2023-05-19T18:38:55.252Z,100491.72
2023-05-19T18:41:23.044Z,100496.03
2023-05-19T18:43:50.726Z,100487.69
2023-05-19T18:46:18.524Z,100495.56
2023-05-19T18:48:46.903Z,100489.25
2023-05-19T18:51:18.286Z,100496.28
2023-05-19T18:53:51.507Z,100498.88
2023-05-19T18:56:19.192Z,100502.19
2023-05-19T18:58:47.694Z,100501.25
2023-05-19T19:01:16.630Z,100502.03
2023-05-19T19:03:45.152Z,100502.75
2023-05-19T19:06:13.083Z,100505.19
2023-05-19T19:08:41.520Z,100512.88
2023-05-19T19:11:11.942Z,100514.47
2023-05-19T19:13:39.658Z,100520.44
2023-05-19T19:16:07.441Z,100521.19
2023-05-19T19:18:36.534Z,100526.31
2023-05-19T19:21:05.738Z,100528.75
2023-05-19T19:23:34.812Z,100539.25
2023-05-19T19:26:02.520Z,100543.38
2023-05-19T19:28:30.400Z,100548.34
2023-05-19T19:30:58.151Z,100540.00
2023-05-19T19:33:26.034Z,100546.00
2023-05-19T19:35:54.127Z,100546.56
2023-05-19T19:38:21.858Z,100546.44
2023-05-19T19:40:49.544Z,100549.69
2023-05-19T19:43:17.230Z,100552.91
2023-05-19T19:45:45.037Z,100553.50
2023-05-19T19:48:13.577Z,100556.78
2023-05-19T19:50:41.554Z,100561.03
2023-05-19T19:53:09.719Z,100557.91
2023-05-19T19:55:37.410Z,100568.38
2023-05-19T19:58:05.636Z,100563.56
2023-05-19T20:00:34.434Z,100559.75
2023-05-19T20:03:05.641Z,100570.03
2023-05-19T20:05:33.775Z,100563.41
2023-05-19T20:08:01.571Z,100564.94
2023-05-19T20:10:29.367Z,100560.13
2023-05-19T20:12:58.946Z,100557.84
2023-05-19T20:15:27.010Z,100552.22
2023-05-19T20:17:54.879Z,100559.81
2023-05-19T20:20:23.255Z,100560.34
2023-05-19T20:22:51.357Z,100564.19
2023-05-19T20:25:19.610Z,100569.13
2023-05-19T20:27:47.279Z,100557.81
2023-05-19T20:30:15.084Z,100573.19
2023-05-19T20:32:44.262Z,100572.72
2023-05-19T20:35:12.049Z,100579.31
2023-05-19T20:37:39.829Z,100574.94
2023-05-19T20:40:07.563Z,100574.13
2023-05-19T20:42:35.702Z,100573.25
2023-05-19T20:45:03.880Z,100569.88
2023-05-19T20:47:31.573Z,100576.34
2023-05-19T20:50:00.263Z,100577.47
2023-05-19T20:52:28.148Z,100573.50
2023-05-19T20:54:55.763Z,100579.56
2023-05-19T20:57:23.432Z,100573.16
2023-05-19T20:59:51.201Z,100572.97
2023-05-19T21:02:19.286Z,100581.66
2023-05-19T21:04:47.205Z,100577.97
2023-05-19T21:07:15.067Z,100584.13
2023-05-19T21:09:46.469Z,100583.06
2023-05-19T21:12:16.314Z,100583.97
2023-05-19T21:14:44.268Z,100590.25
2023-05-19T21:17:12.047Z,100590.16
2023-05-19T21:19:39.951Z,100583.00
2023-05-19T21:22:07.647Z,100587.44
2023-05-19T21:24:35.741Z,100596.13
2023-05-19T21:27:03.977Z,100591.50
2023-05-19T21:29:31.644Z,100591.44
2023-05-19T21:31:59.884Z,100599.09
2023-05-19T21:34:27.546Z,100589.84
2023-05-19T21:36:55.206Z,100600.94
2023-05-19T21:39:23.342Z,100600.50
2023-05-19T21:41:51.474Z,100591.97
2023-05-19T21:44:19.259Z,100600.47
2023-05-19T21:46:47.722Z,100591.03
2023-05-19T21:49:15.464Z,100597.56
2023-05-19T21:51:43.425Z,100594.31
2023-05-19T21:54:11.067Z,100591.03
2023-05-19T21:56:38.955Z,100590.56
2023-05-19T21:59:07.049Z,100597.22
2023-05-19T22:01:34.771Z,100605.63
2023-05-19T22:04:02.722Z,100589.22
2023-05-19T22:06:31.604Z,100586.91
2023-05-19T22:09:01.303Z,100588.97
2023-05-19T22:11:29.030Z,100584.78
2023-05-19T22:13:56.699Z,100581.50
2023-05-19T22:16:25.052Z,100575.44
2023-05-19T22:18:52.973Z,100580.19
2023-05-19T22:21:20.688Z,100585.78
2023-05-19T22:23:48.317Z,100586.88
2023-05-19T22:26:16.161Z,100595.25
2023-05-19T22:28:44.435Z,100586.63
2023-05-19T22:31:12.545Z,100587.81
2023-05-19T22:33:40.259Z,100591.81
2023-05-19T22:36:08.519Z,100585.84
2023-05-19T22:38:36.442Z,100591.56
2023-05-19T22:41:04.726Z,100590.06
2023-05-19T22:43:32.399Z,100603.78
2023-05-19T22:46:00.074Z,100594.44
2023-05-19T22:48:27.823Z,100594.78
2023-05-19T22:50:55.441Z,100592.56
2023-05-19T22:53:24.870Z,100583.22
2023-05-19T22:55:52.551Z,100588.19
2023-05-19T22:58:20.156Z,100583.31
2023-05-19T23:00:47.835Z,100589.84
2023-05-19T23:03:15.762Z,100578.66
2023-05-19T23:05:43.634Z,100572.72
2023-05-19T23:08:11.308Z,100578.25
2023-05-19T23:10:38.956Z,100570.59
2023-05-19T23:13:06.615Z,100578.72
2023-05-19T23:15:34.805Z,100577.25
2023-05-19T23:18:07.316Z,100577.34
2023-05-19T23:20:35.665Z,100584.75
2023-05-19T23:23:03.318Z,100578.91
2023-05-19T23:25:31.158Z,100580.09
2023-05-19T23:27:58.807Z,100580.44
2023-05-19T23:30:27.000Z,100578.00
2023-05-19T23:32:54.734Z,100575.66
2023-05-19T23:35:22.358Z,100571.38
2023-05-19T23:37:50.028Z,100570.75
2023-05-19T23:40:17.694Z,100568.28
2023-05-19T23:42:45.685Z,100573.00
2023-05-19T23:45:13.317Z,100579.53
2023-05-19T23:47:41.142Z,100584.25
2023-05-19T23:50:08.813Z,100577.41
2023-05-19T23:52:36.434Z,100581.28
2023-05-19T23:55:04.527Z,100582.44
2023-05-19T23:57:32.110Z,100572.13
